sensor_id;sensor_type;location;lat;lon;timestamp;P1;durP1;ratioP1;P2;durP2;ratioP2
49946;SDS011;35839;48.662;13.300;2024-01-30T00:00:21;22.47;;;12.83;;
49946;SDS011;35839;48.662;13.300;2024-01-30T00:02:46;22.17;;;13.23;;
49946;SDS011;35839;48.662;13.300;2024-01-30T00:05:11;23.93;;;13.37;;
49946;SDS011;35839;48.662;13.300;2024-01-30T00:07:37;21.73;;;13.13;;
49946;SDS011;35839;48.662;13.300;2024-01-30T00:10:02;27.80;;;16.20;;
49946;SDS011;35839;48.662;13.300;2024-01-30T00:12:28;23.10;;;13.67;;
49946;SDS011;35839;48.662;13.300;2024-01-30T00:14:53;27.37;;;14.63;;
49946;SDS011;35839;48.662;13.300;2024-01-30T00:17:19;23.30;;;14.30;;
49946;SDS011;35839;48.662;13.300;2024-01-30T00:19:45;23.43;;;14.73;;
49946;SDS011;35839;48.662;13.300;2024-01-30T00:22:11;26.00;;;14.50;;
49946;SDS011;35839;48.662;13.300;2024-01-30T00:24:36;25.57;;;14.03;;
49946;SDS011;35839;48.662;13.300;2024-01-30T00:27:02;26.53;;;14.90;;
49946;SDS011;35839;48.662;13.300;2024-01-30T00:29:27;20.73;;;12.87;;
49946;SDS011;35839;48.662;13.300;2024-01-30T00:31:56;25.27;;;14.73;;
49946;SDS011;35839;48.662;13.300;2024-01-30T00:34:21;25.37;;;14.60;;
49946;SDS011;35839;48.662;13.300;2024-01-30T00:36:47;23.07;;;12.80;;
49946;SDS011;35839;48.662;13.300;2024-01-30T00:39:15;25.37;;;13.93;;
49946;SDS011;35839;48.662;13.300;2024-01-30T00:41:41;25.90;;;14.10;;
49946;SDS011;35839;48.662;13.300;2024-01-30T00:44:06;20.50;;;13.47;;
49946;SDS011;35839;48.662;13.300;2024-01-30T00:46:31;26.27;;;14.50;;
49946;SDS011;35839;48.662;13.300;2024-01-30T00:48:57;24.93;;;13.30;;
49946;SDS011;35839;48.662;13.300;2024-01-30T00:51:22;29.50;;;14.60;;
49946;SDS011;35839;48.662;13.300;2024-01-30T00:53:47;20.30;;;13.53;;
49946;SDS011;35839;48.662;13.300;2024-01-30T00:56:13;23.57;;;12.23;;
49946;SDS011;35839;48.662;13.300;2024-01-30T00:58:38;23.07;;;14.27;;
49946;SDS011;35839;48.662;13.300;2024-01-30T01:01:04;27.20;;;13.17;;
49946;SDS011;35839;48.662;13.300;2024-01-30T01:03:29;22.93;;;13.03;;
49946;SDS011;35839;48.662;13.300;2024-01-30T01:05:55;26.90;;;13.77;;
49946;SDS011;35839;48.662;13.300;2024-01-30T01:08:20;20.33;;;13.07;;
49946;SDS011;35839;48.662;13.300;2024-01-30T01:10:45;26.27;;;14.30;;
49946;SDS011;35839;48.662;13.300;2024-01-30T01:13:11;22.67;;;12.53;;
49946;SDS011;35839;48.662;13.300;2024-01-30T01:15:36;20.63;;;12.77;;
49946;SDS011;35839;48.662;13.300;2024-01-30T01:18:02;24.20;;;14.17;;
49946;SDS011;35839;48.662;13.300;2024-01-30T01:20:27;19.27;;;12.40;;
49946;SDS011;35839;48.662;13.300;2024-01-30T01:22:53;24.60;;;12.73;;
49946;SDS011;35839;48.662;13.300;2024-01-30T01:25:19;24.37;;;12.00;;
49946;SDS011;35839;48.662;13.300;2024-01-30T01:27:44;22.73;;;13.10;;
49946;SDS011;35839;48.662;13.300;2024-01-30T01:30:16;50.10;;;21.20;;
49946;SDS011;35839;48.662;13.300;2024-01-30T01:32:46;51.27;;;27.27;;
49946;SDS011;35839;48.662;13.300;2024-01-30T01:35:26;34.75;;;21.63;;
49946;SDS011;35839;48.662;13.300;2024-01-30T01:37:52;23.90;;;14.47;;
49946;SDS011;35839;48.662;13.300;2024-01-30T01:40:23;27.10;;;15.43;;
49946;SDS011;35839;48.662;13.300;2024-01-30T01:42:52;24.60;;;14.97;;
49946;SDS011;35839;48.662;13.300;2024-01-30T01:45:18;21.02;;;13.23;;
49946;SDS011;35839;48.662;13.300;2024-01-30T01:47:44;23.73;;;12.67;;
49946;SDS011;35839;48.662;13.300;2024-01-30T01:50:13;24.67;;;12.93;;
49946;SDS011;35839;48.662;13.300;2024-01-30T01:52:40;27.13;;;13.63;;
49946;SDS011;35839;48.662;13.300;2024-01-30T01:55:06;26.37;;;13.37;;
49946;SDS011;35839;48.662;13.300;2024-01-30T01:57:33;22.83;;;12.73;;
49946;SDS011;35839;48.662;13.300;2024-01-30T01:59:59;25.00;;;13.13;;
49946;SDS011;35839;48.662;13.300;2024-01-30T02:02:25;19.20;;;11.53;;
49946;SDS011;35839;48.662;13.300;2024-01-30T02:04:53;22.43;;;12.43;;
49946;SDS011;35839;48.662;13.300;2024-01-30T02:07:24;18.70;;;11.93;;
49946;SDS011;35839;48.662;13.300;2024-01-30T02:09:49;20.83;;;13.03;;
49946;SDS011;35839;48.662;13.300;2024-01-30T02:12:14;22.87;;;13.00;;
49946;SDS011;35839;48.662;13.300;2024-01-30T02:14:46;21.93;;;12.73;;
49946;SDS011;35839;48.662;13.300;2024-01-30T02:17:12;27.60;;;12.97;;
49946;SDS011;35839;48.662;13.300;2024-01-30T02:19:38;22.00;;;12.93;;
49946;SDS011;35839;48.662;13.300;2024-01-30T02:22:04;23.93;;;12.90;;
49946;SDS011;35839;48.662;13.300;2024-01-30T02:24:30;21.73;;;13.00;;
49946;SDS011;35839;48.662;13.300;2024-01-30T02:26:55;23.93;;;12.63;;
49946;SDS011;35839;48.662;13.300;2024-01-30T02:29:21;23.63;;;12.73;;
49946;SDS011;35839;48.662;13.300;2024-01-30T02:31:46;19.83;;;12.30;;
49946;SDS011;35839;48.662;13.300;2024-01-30T02:34:12;25.10;;;12.30;;
49946;SDS011;35839;48.662;13.300;2024-01-30T02:36:37;20.80;;;12.07;;
49946;SDS011;35839;48.662;13.300;2024-01-30T02:39:03;19.63;;;11.53;;
49946;SDS011;35839;48.662;13.300;2024-01-30T02:41:29;23.17;;;12.93;;
49946;SDS011;35839;48.662;13.300;2024-01-30T02:43:54;20.33;;;12.23;;
49946;SDS011;35839;48.662;13.300;2024-01-30T02:46:20;19.73;;;11.60;;
49946;SDS011;35839;48.662;13.300;2024-01-30T02:48:45;20.53;;;11.90;;
49946;SDS011;35839;48.662;13.300;2024-01-30T02:51:10;28.90;;;13.87;;
49946;SDS011;35839;48.662;13.300;2024-01-30T02:53:36;20.17;;;11.93;;
49946;SDS011;35839;48.662;13.300;2024-01-30T02:56:02;25.07;;;12.83;;
49946;SDS011;35839;48.662;13.300;2024-01-30T02:58:28;21.67;;;11.70;;
49946;SDS011;35839;48.662;13.300;2024-01-30T03:00:53;26.23;;;12.80;;
49946;SDS011;35839;48.662;13.300;2024-01-30T03:03:19;21.40;;;11.90;;
49946;SDS011;35839;48.662;13.300;2024-01-30T03:05:44;21.33;;;13.17;;
49946;SDS011;35839;48.662;13.300;2024-01-30T03:08:09;22.97;;;12.83;;
49946;SDS011;35839;48.662;13.300;2024-01-30T03:10:35;22.53;;;13.00;;
49946;SDS011;35839;48.662;13.300;2024-01-30T03:13:00;23.67;;;12.60;;
49946;SDS011;35839;48.662;13.300;2024-01-30T03:15:26;24.40;;;12.43;;
49946;SDS011;35839;48.662;13.300;2024-01-30T03:17:51;26.53;;;12.87;;
49946;SDS011;35839;48.662;13.300;2024-01-30T03:20:18;21.87;;;13.03;;
49946;SDS011;35839;48.662;13.300;2024-01-30T03:22:43;27.80;;;12.90;;
49946;SDS011;35839;48.662;13.300;2024-01-30T03:25:08;22.70;;;12.70;;
49946;SDS011;35839;48.662;13.300;2024-01-30T03:27:34;20.50;;;11.70;;
49946;SDS011;35839;48.662;13.300;2024-01-30T03:29:59;27.57;;;13.70;;
49946;SDS011;35839;48.662;13.300;2024-01-30T03:32:24;20.73;;;12.47;;
49946;SDS011;35839;48.662;13.300;2024-01-30T03:34:50;21.17;;;11.67;;
49946;SDS011;35839;48.662;13.300;2024-01-30T03:37:15;32.70;;;13.30;;
49946;SDS011;35839;48.662;13.300;2024-01-30T03:39:40;25.63;;;12.40;;
49946;SDS011;35839;48.662;13.300;2024-01-30T03:42:06;21.20;;;11.63;;
49946;SDS011;35839;48.662;13.300;2024-01-30T03:44:31;26.10;;;13.63;;
49946;SDS011;35839;48.662;13.300;2024-01-30T03:46:56;21.27;;;11.83;;
49946;SDS011;35839;48.662;13.300;2024-01-30T03:49:22;22.37;;;12.40;;
49946;SDS011;35839;48.662;13.300;2024-01-30T03:51:47;19.27;;;12.43;;
49946;SDS011;35839;48.662;13.300;2024-01-30T03:54:12;27.37;;;13.60;;
49946;SDS011;35839;48.662;13.300;2024-01-30T03:56:38;22.10;;;12.30;;
49946;SDS011;35839;48.662;13.300;2024-01-30T03:59:03;25.30;;;12.67;;
49946;SDS011;35839;48.662;13.300;2024-01-30T04:01:29;19.40;;;12.70;;
49946;SDS011;35839;48.662;13.300;2024-01-30T04:03:54;22.30;;;11.87;;
49946;SDS011;35839;48.662;13.300;2024-01-30T04:06:19;20.13;;;12.77;;
49946;SDS011;35839;48.662;13.300;2024-01-30T04:08:45;20.73;;;11.77;;
49946;SDS011;35839;48.662;13.300;2024-01-30T04:11:10;20.63;;;11.53;;
49946;SDS011;35839;48.662;13.300;2024-01-30T04:13:35;23.87;;;12.90;;
49946;SDS011;35839;48.662;13.300;2024-01-30T04:16:01;25.30;;;12.57;;
49946;SDS011;35839;48.662;13.300;2024-01-30T04:18:27;24.73;;;12.30;;
49946;SDS011;35839;48.662;13.300;2024-01-30T04:20:53;17.27;;;11.13;;
49946;SDS011;35839;48.662;13.300;2024-01-30T04:23:19;20.13;;;11.97;;
49946;SDS011;35839;48.662;13.300;2024-01-30T04:25:44;19.57;;;12.37;;
49946;SDS011;35839;48.662;13.300;2024-01-30T04:28:09;21.57;;;12.13;;
49946;SDS011;35839;48.662;13.300;2024-01-30T04:30:37;17.13;;;11.37;;
49946;SDS011;35839;48.662;13.300;2024-01-30T04:33:02;22.63;;;11.40;;
49946;SDS011;35839;48.662;13.300;2024-01-30T04:35:28;18.87;;;11.77;;
49946;SDS011;35839;48.662;13.300;2024-01-30T04:37:54;21.67;;;11.20;;
49946;SDS011;35839;48.662;13.300;2024-01-30T04:40:20;26.13;;;12.33;;
49946;SDS011;35839;48.662;13.300;2024-01-30T04:42:46;22.43;;;12.40;;
49946;SDS011;35839;48.662;13.300;2024-01-30T04:45:11;21.90;;;11.73;;
49946;SDS011;35839;48.662;13.300;2024-01-30T04:47:37;19.90;;;12.60;;
49946;SDS011;35839;48.662;13.300;2024-01-30T04:50:04;16.87;;;10.90;;
49946;SDS011;35839;48.662;13.300;2024-01-30T04:52:31;22.07;;;12.47;;
49946;SDS011;35839;48.662;13.300;2024-01-30T04:54:56;25.37;;;13.47;;
49946;SDS011;35839;48.662;13.300;2024-01-30T04:57:21;19.27;;;13.27;;
49946;SDS011;35839;48.662;13.300;2024-01-30T04:59:47;24.50;;;13.73;;
49946;SDS011;35839;48.662;13.300;2024-01-30T05:02:12;19.97;;;12.97;;
49946;SDS011;35839;48.662;13.300;2024-01-30T05:04:37;23.80;;;13.17;;
49946;SDS011;35839;48.662;13.300;2024-01-30T05:07:03;20.77;;;12.27;;
49946;SDS011;35839;48.662;13.300;2024-01-30T05:09:28;23.93;;;13.77;;
49946;SDS011;35839;48.662;13.300;2024-01-30T05:11:54;40.23;;;21.40;;
49946;SDS011;35839;48.662;13.300;2024-01-30T05:14:19;50.40;;;24.70;;
49946;SDS011;35839;48.662;13.300;2024-01-30T05:16:44;32.73;;;17.27;;
49946;SDS011;35839;48.662;13.300;2024-01-30T05:19:12;19.73;;;13.00;;
49946;SDS011;35839;48.662;13.300;2024-01-30T05:21:41;15.25;;;9.60;;
49946;SDS011;35839;48.662;13.300;2024-01-30T05:24:06;22.70;;;13.13;;
49946;SDS011;35839;48.662;13.300;2024-01-30T05:26:34;17.93;;;11.83;;
49946;SDS011;35839;48.662;13.300;2024-01-30T05:29:00;22.93;;;13.63;;
49946;SDS011;35839;48.662;13.300;2024-01-30T05:31:25;23.07;;;13.73;;
49946;SDS011;35839;48.662;13.300;2024-01-30T05:33:52;35.23;;;17.43;;
49946;SDS011;35839;48.662;13.300;2024-01-30T05:36:17;26.40;;;14.40;;
49946;SDS011;35839;48.662;13.300;2024-01-30T05:38:42;29.47;;;15.07;;
49946;SDS011;35839;48.662;13.300;2024-01-30T05:41:08;24.23;;;13.77;;
49946;SDS011;35839;48.662;13.300;2024-01-30T05:43:34;22.90;;;12.77;;
49946;SDS011;35839;48.662;13.300;2024-01-30T05:45:59;20.93;;;12.03;;
49946;SDS011;35839;48.662;13.300;2024-01-30T05:48:25;29.10;;;16.20;;
49946;SDS011;35839;48.662;13.300;2024-01-30T05:50:51;28.67;;;14.53;;
49946;SDS011;35839;48.662;13.300;2024-01-30T05:53:16;24.43;;;13.33;;
49946;SDS011;35839;48.662;13.300;2024-01-30T05:55:41;17.10;;;11.73;;
49946;SDS011;35839;48.662;13.300;2024-01-30T05:58:07;24.83;;;13.10;;
49946;SDS011;35839;48.662;13.300;2024-01-30T06:00:32;21.97;;;13.17;;
49946;SDS011;35839;48.662;13.300;2024-01-30T06:02:57;25.50;;;13.27;;
49946;SDS011;35839;48.662;13.300;2024-01-30T06:05:25;23.47;;;13.97;;
49946;SDS011;35839;48.662;13.300;2024-01-30T06:07:51;22.40;;;13.27;;
49946;SDS011;35839;48.662;13.300;2024-01-30T06:10:16;25.30;;;12.97;;
49946;SDS011;35839;48.662;13.300;2024-01-30T06:12:41;22.47;;;13.63;;
49946;SDS011;35839;48.662;13.300;2024-01-30T06:15:07;22.13;;;12.90;;
49946;SDS011;35839;48.662;13.300;2024-01-30T06:17:32;21.87;;;13.43;;
49946;SDS011;35839;48.662;13.300;2024-01-30T06:19:58;24.67;;;13.60;;
49946;SDS011;35839;48.662;13.300;2024-01-30T06:22:23;25.03;;;12.93;;
49946;SDS011;35839;48.662;13.300;2024-01-30T06:24:49;20.63;;;13.53;;
49946;SDS011;35839;48.662;13.300;2024-01-30T06:27:14;23.90;;;13.17;;
49946;SDS011;35839;48.662;13.300;2024-01-30T06:29:40;25.90;;;14.30;;
49946;SDS011;35839;48.662;13.300;2024-01-30T06:32:07;23.73;;;13.43;;
49946;SDS011;35839;48.662;13.300;2024-01-30T06:34:33;23.80;;;12.90;;
49946;SDS011;35839;48.662;13.300;2024-01-30T06:36:58;23.60;;;13.10;;
49946;SDS011;35839;48.662;13.300;2024-01-30T06:39:24;22.83;;;13.33;;
49946;SDS011;35839;48.662;13.300;2024-01-30T06:41:50;23.50;;;13.97;;
49946;SDS011;35839;48.662;13.300;2024-01-30T06:44:15;21.97;;;14.43;;
49946;SDS011;35839;48.662;13.300;2024-01-30T06:46:40;28.20;;;13.23;;
49946;SDS011;35839;48.662;13.300;2024-01-30T06:49:06;22.13;;;12.10;;
49946;SDS011;35839;48.662;13.300;2024-01-30T06:51:31;22.17;;;12.90;;
49946;SDS011;35839;48.662;13.300;2024-01-30T06:53:56;31.20;;;13.60;;
49946;SDS011;35839;48.662;13.300;2024-01-30T06:56:22;23.03;;;13.43;;
49946;SDS011;35839;48.662;13.300;2024-01-30T06:58:48;20.47;;;13.13;;
49946;SDS011;35839;48.662;13.300;2024-01-30T07:01:14;25.33;;;14.20;;
49946;SDS011;35839;48.662;13.300;2024-01-30T07:03:39;21.10;;;11.97;;
49946;SDS011;35839;48.662;13.300;2024-01-30T07:06:04;21.63;;;12.93;;
49946;SDS011;35839;48.662;13.300;2024-01-30T07:08:30;21.77;;;12.93;;
49946;SDS011;35839;48.662;13.300;2024-01-30T07:10:55;22.27;;;12.57;;
49946;SDS011;35839;48.662;13.300;2024-01-30T07:13:21;24.17;;;13.97;;
49946;SDS011;35839;48.662;13.300;2024-01-30T07:15:46;19.50;;;12.60;;
49946;SDS011;35839;48.662;13.300;2024-01-30T07:18:12;20.70;;;12.80;;
49946;SDS011;35839;48.662;13.300;2024-01-30T07:20:38;23.03;;;12.13;;
49946;SDS011;35839;48.662;13.300;2024-01-30T07:23:10;23.93;;;11.93;;
49946;SDS011;35839;48.662;13.300;2024-01-30T07:25:38;20.03;;;11.93;;
49946;SDS011;35839;48.662;13.300;2024-01-30T07:28:06;17.60;;;11.10;;
49946;SDS011;35839;48.662;13.300;2024-01-30T07:30:35;23.17;;;13.15;;
49946;SDS011;35839;48.662;13.300;2024-01-30T07:33:01;19.23;;;11.50;;
49946;SDS011;35839;48.662;13.300;2024-01-30T07:35:26;18.57;;;10.63;;
49946;SDS011;35839;48.662;13.300;2024-01-30T07:37:52;20.83;;;10.87;;
49946;SDS011;35839;48.662;13.300;2024-01-30T07:40:17;18.00;;;10.80;;
49946;SDS011;35839;48.662;13.300;2024-01-30T07:42:43;22.23;;;11.37;;
49946;SDS011;35839;48.662;13.300;2024-01-30T07:45:08;25.27;;;11.73;;
49946;SDS011;35839;48.662;13.300;2024-01-30T07:47:34;21.50;;;11.60;;
49946;SDS011;35839;48.662;13.300;2024-01-30T07:49:59;15.70;;;9.27;;
49946;SDS011;35839;48.662;13.300;2024-01-30T07:52:25;20.60;;;10.57;;
49946;SDS011;35839;48.662;13.300;2024-01-30T07:54:50;26.60;;;12.93;;
49946;SDS011;35839;48.662;13.300;2024-01-30T07:57:16;19.30;;;9.70;;
49946;SDS011;35839;48.662;13.300;2024-01-30T07:59:42;22.17;;;11.63;;
49946;SDS011;35839;48.662;13.300;2024-01-30T08:02:11;18.83;;;11.50;;
49946;SDS011;35839;48.662;13.300;2024-01-30T08:04:37;20.77;;;10.27;;
49946;SDS011;35839;48.662;13.300;2024-01-30T08:07:03;16.30;;;9.77;;
49946;SDS011;35839;48.662;13.300;2024-01-30T08:09:28;21.37;;;10.13;;
49946;SDS011;35839;48.662;13.300;2024-01-30T08:11:54;23.43;;;11.40;;
49946;SDS011;35839;48.662;13.300;2024-01-30T08:14:19;20.53;;;11.50;;
49946;SDS011;35839;48.662;13.300;2024-01-30T08:16:44;19.87;;;11.37;;
49946;SDS011;35839;48.662;13.300;2024-01-30T08:19:10;22.47;;;12.40;;
49946;SDS011;35839;48.662;13.300;2024-01-30T08:21:35;24.97;;;13.50;;
49946;SDS011;35839;48.662;13.300;2024-01-30T08:24:04;22.30;;;14.30;;
49946;SDS011;35839;48.662;13.300;2024-01-30T08:26:31;18.45;;;10.50;;
49946;SDS011;35839;48.662;13.300;2024-01-30T08:28:57;27.00;;;13.93;;
49946;SDS011;35839;48.662;13.300;2024-01-30T08:31:22;23.23;;;11.87;;
49946;SDS011;35839;48.662;13.300;2024-01-30T08:33:48;21.73;;;12.37;;
49946;SDS011;35839;48.662;13.300;2024-01-30T08:36:13;21.30;;;12.10;;
49946;SDS011;35839;48.662;13.300;2024-01-30T08:38:39;17.17;;;11.10;;
49946;SDS011;35839;48.662;13.300;2024-01-30T08:41:04;20.67;;;11.27;;
49946;SDS011;35839;48.662;13.300;2024-01-30T08:43:30;19.63;;;11.47;;
49946;SDS011;35839;48.662;13.300;2024-01-30T08:45:55;20.93;;;10.93;;
49946;SDS011;35839;48.662;13.300;2024-01-30T08:48:22;16.77;;;10.30;;
49946;SDS011;35839;48.662;13.300;2024-01-30T08:50:47;28.90;;;14.23;;
49946;SDS011;35839;48.662;13.300;2024-01-30T08:53:13;24.53;;;14.23;;
49946;SDS011;35839;48.662;13.300;2024-01-30T08:55:38;33.80;;;17.03;;
49946;SDS011;35839;48.662;13.300;2024-01-30T08:58:04;27.57;;;14.90;;
49946;SDS011;35839;48.662;13.300;2024-01-30T09:00:30;23.80;;;15.47;;
49946;SDS011;35839;48.662;13.300;2024-01-30T09:02:55;32.00;;;15.37;;
49946;SDS011;35839;48.662;13.300;2024-01-30T09:05:20;27.80;;;16.57;;
49946;SDS011;35839;48.662;13.300;2024-01-30T09:07:46;31.50;;;17.43;;
49946;SDS011;35839;48.662;13.300;2024-01-30T09:10:11;30.10;;;18.00;;
49946;SDS011;35839;48.662;13.300;2024-01-30T09:12:36;31.33;;;18.23;;
49946;SDS011;35839;48.662;13.300;2024-01-30T09:15:03;28.23;;;18.57;;
49946;SDS011;35839;48.662;13.300;2024-01-30T09:17:28;29.13;;;19.33;;
49946;SDS011;35839;48.662;13.300;2024-01-30T09:19:54;35.07;;;21.13;;
49946;SDS011;35839;48.662;13.300;2024-01-30T09:22:20;35.77;;;21.77;;
49946;SDS011;35839;48.662;13.300;2024-01-30T09:24:45;30.70;;;20.63;;
49946;SDS011;35839;48.662;13.300;2024-01-30T09:27:11;29.57;;;19.07;;
49946;SDS011;35839;48.662;13.300;2024-01-30T09:29:36;36.10;;;22.20;;
49946;SDS011;35839;48.662;13.300;2024-01-30T09:32:01;30.83;;;22.37;;
49946;SDS011;35839;48.662;13.300;2024-01-30T09:34:27;41.67;;;23.73;;
49946;SDS011;35839;48.662;13.300;2024-01-30T09:36:52;34.40;;;22.67;;
49946;SDS011;35839;48.662;13.300;2024-01-30T09:39:17;38.63;;;23.13;;
49946;SDS011;35839;48.662;13.300;2024-01-30T09:41:45;33.63;;;21.43;;
49946;SDS011;35839;48.662;13.300;2024-01-30T09:44:15;36.47;;;22.13;;
49946;SDS011;35839;48.662;13.300;2024-01-30T09:46:42;29.60;;;20.17;;
49946;SDS011;35839;48.662;13.300;2024-01-30T09:49:08;31.80;;;19.47;;
49946;SDS011;35839;48.662;13.300;2024-01-30T09:51:34;32.77;;;19.63;;
49946;SDS011;35839;48.662;13.300;2024-01-30T09:54:01;29.50;;;19.40;;
49946;SDS011;35839;48.662;13.300;2024-01-30T09:56:28;35.97;;;20.43;;
49946;SDS011;35839;48.662;13.300;2024-01-30T09:58:54;30.73;;;19.33;;
49946;SDS011;35839;48.662;13.300;2024-01-30T10:01:19;30.03;;;18.47;;
49946;SDS011;35839;48.662;13.300;2024-01-30T10:03:45;29.40;;;18.73;;
49946;SDS011;35839;48.662;13.300;2024-01-30T10:06:10;33.10;;;21.10;;
49946;SDS011;35839;48.662;13.300;2024-01-30T10:08:36;32.93;;;19.80;;
49946;SDS011;35839;48.662;13.300;2024-01-30T10:11:02;31.97;;;19.47;;
49946;SDS011;35839;48.662;13.300;2024-01-30T10:13:28;33.67;;;20.23;;
49946;SDS011;35839;48.662;13.300;2024-01-30T10:15:54;41.50;;;19.93;;
49946;SDS011;35839;48.662;13.300;2024-01-30T10:18:20;33.20;;;18.77;;
49946;SDS011;35839;48.662;13.300;2024-01-30T10:20:47;31.13;;;20.53;;
49946;SDS011;35839;48.662;13.300;2024-01-30T10:23:12;34.50;;;19.57;;
49946;SDS011;35839;48.662;13.300;2024-01-30T10:25:38;30.87;;;19.40;;
49946;SDS011;35839;48.662;13.300;2024-01-30T10:28:03;30.97;;;19.30;;
49946;SDS011;35839;48.662;13.300;2024-01-30T10:30:29;29.10;;;17.67;;
49946;SDS011;35839;48.662;13.300;2024-01-30T10:32:54;25.53;;;18.27;;
49946;SDS011;35839;48.662;13.300;2024-01-30T10:35:20;32.60;;;20.97;;
49946;SDS011;35839;48.662;13.300;2024-01-30T10:37:48;31.47;;;20.40;;
49946;SDS011;35839;48.662;13.300;2024-01-30T10:40:14;25.63;;;16.37;;
49946;SDS011;35839;48.662;13.300;2024-01-30T10:42:43;26.70;;;18.30;;
49946;SDS011;35839;48.662;13.300;2024-01-30T10:45:13;26.60;;;18.00;;
49946;SDS011;35839;48.662;13.300;2024-01-30T10:47:44;28.57;;;18.83;;
49946;SDS011;35839;48.662;13.300;2024-01-30T10:50:14;30.17;;;19.40;;
49946;SDS011;35839;48.662;13.300;2024-01-30T10:52:40;31.83;;;20.33;;
49946;SDS011;35839;48.662;13.300;2024-01-30T10:55:07;34.40;;;19.73;;
49946;SDS011;35839;48.662;13.300;2024-01-30T10:57:36;28.13;;;19.03;;
49946;SDS011;35839;48.662;13.300;2024-01-30T11:00:10;31.10;;;20.30;;
49946;SDS011;35839;48.662;13.300;2024-01-30T11:02:38;27.60;;;18.10;;
49946;SDS011;35839;48.662;13.300;2024-01-30T11:05:05;29.30;;;19.40;;
49946;SDS011;35839;48.662;13.300;2024-01-30T11:07:31;29.80;;;19.10;;
49946;SDS011;35839;48.662;13.300;2024-01-30T11:10:02;35.63;;;18.80;;
49946;SDS011;35839;48.662;13.300;2024-01-30T11:12:32;24.70;;;17.33;;
49946;SDS011;35839;48.662;13.300;2024-01-30T11:15:05;29.63;;;19.27;;
49946;SDS011;35839;48.662;13.300;2024-01-30T11:20:09;26.63;;;17.37;;
49946;SDS011;35839;48.662;13.300;2024-01-30T11:22:37;28.67;;;18.13;;
49946;SDS011;35839;48.662;13.300;2024-01-30T11:25:02;27.77;;;17.53;;
49946;SDS011;35839;48.662;13.300;2024-01-30T11:27:29;23.27;;;17.77;;
49946;SDS011;35839;48.662;13.300;2024-01-30T11:30:00;28.57;;;18.33;;
49946;SDS011;35839;48.662;13.300;2024-01-30T11:32:27;31.63;;;18.70;;
49946;SDS011;35839;48.662;13.300;2024-01-30T11:34:53;31.10;;;18.87;;
49946;SDS011;35839;48.662;13.300;2024-01-30T11:37:19;33.57;;;19.33;;
49946;SDS011;35839;48.662;13.300;2024-01-30T11:39:46;31.10;;;18.47;;
49946;SDS011;35839;48.662;13.300;2024-01-30T11:42:13;31.80;;;19.97;;
49946;SDS011;35839;48.662;13.300;2024-01-30T11:44:39;31.33;;;18.93;;
49946;SDS011;35839;48.662;13.300;2024-01-30T11:47:04;27.47;;;18.67;;
49946;SDS011;35839;48.662;13.300;2024-01-30T11:49:30;30.47;;;19.13;;
49946;SDS011;35839;48.662;13.300;2024-01-30T11:51:55;31.17;;;19.17;;
49946;SDS011;35839;48.662;13.300;2024-01-30T11:54:21;28.17;;;19.13;;
49946;SDS011;35839;48.662;13.300;2024-01-30T11:56:46;29.40;;;18.07;;
49946;SDS011;35839;48.662;13.300;2024-01-30T11:59:13;30.07;;;19.03;;
49946;SDS011;35839;48.662;13.300;2024-01-30T12:01:39;27.63;;;18.77;;
49946;SDS011;35839;48.662;13.300;2024-01-30T12:04:04;27.97;;;18.93;;
49946;SDS011;35839;48.662;13.300;2024-01-30T12:06:33;33.50;;;20.10;;
49946;SDS011;35839;48.662;13.300;2024-01-30T12:09:00;28.37;;;19.87;;
49946;SDS011;35839;48.662;13.300;2024-01-30T12:13:55;29.47;;;18.90;;
49946;SDS011;35839;48.662;13.300;2024-01-30T12:16:22;30.50;;;18.13;;
49946;SDS011;35839;48.662;13.300;2024-01-30T12:18:48;28.53;;;19.63;;
49946;SDS011;35839;48.662;13.300;2024-01-30T12:21:17;27.93;;;18.90;;
49946;SDS011;35839;48.662;13.300;2024-01-30T12:23:43;33.33;;;17.45;;
49946;SDS011;35839;48.662;13.300;2024-01-30T12:26:08;32.43;;;19.70;;
49946;SDS011;35839;48.662;13.300;2024-01-30T12:28:34;29.33;;;18.50;;
49946;SDS011;35839;48.662;13.300;2024-01-30T12:31:03;31.50;;;19.17;;
49946;SDS011;35839;48.662;13.300;2024-01-30T12:33:29;29.08;;;18.67;;
49946;SDS011;35839;48.662;13.300;2024-01-30T12:35:55;30.47;;;18.83;;
49946;SDS011;35839;48.662;13.300;2024-01-30T12:38:24;25.10;;;16.33;;
49946;SDS011;35839;48.662;13.300;2024-01-30T12:40:53;25.53;;;15.83;;
49946;SDS011;35839;48.662;13.300;2024-01-30T12:43:19;31.20;;;17.70;;
49946;SDS011;35839;48.662;13.300;2024-01-30T12:45:44;26.33;;;16.53;;
49946;SDS011;35839;48.662;13.300;2024-01-30T12:48:10;30.17;;;18.17;;
49946;SDS011;35839;48.662;13.300;2024-01-30T12:50:35;26.47;;;17.43;;
49946;SDS011;35839;48.662;13.300;2024-01-30T12:53:00;25.40;;;17.03;;
49946;SDS011;35839;48.662;13.300;2024-01-30T12:55:26;31.83;;;18.07;;
49946;SDS011;35839;48.662;13.300;2024-01-30T12:57:55;30.85;;;17.85;;
49946;SDS011;35839;48.662;13.300;2024-01-30T13:00:21;25.40;;;17.80;;
49946;SDS011;35839;48.662;13.300;2024-01-30T13:02:47;28.87;;;16.07;;
49946;SDS011;35839;48.662;13.300;2024-01-30T13:05:13;27.63;;;17.53;;
49946;SDS011;35839;48.662;13.300;2024-01-30T13:07:38;28.07;;;17.40;;
49946;SDS011;35839;48.662;13.300;2024-01-30T13:10:07;29.20;;;17.83;;
49946;SDS011;35839;48.662;13.300;2024-01-30T13:12:32;32.88;;;21.45;;
49946;SDS011;35839;48.662;13.300;2024-01-30T13:14:58;29.13;;;18.90;;
49946;SDS011;35839;48.662;13.300;2024-01-30T13:17:28;27.87;;;17.80;;
49946;SDS011;35839;48.662;13.300;2024-01-30T13:19:54;27.67;;;19.43;;
49946;SDS011;35839;48.662;13.300;2024-01-30T13:22:20;30.77;;;18.60;;
49946;SDS011;35839;48.662;13.300;2024-01-30T13:24:48;23.05;;;16.33;;
49946;SDS011;35839;48.662;13.300;2024-01-30T13:27:13;25.03;;;17.97;;
49946;SDS011;35839;48.662;13.300;2024-01-30T13:29:39;25.67;;;16.97;;
49946;SDS011;35839;48.662;13.300;2024-01-30T13:32:04;26.47;;;17.57;;
49946;SDS011;35839;48.662;13.300;2024-01-30T13:34:30;29.33;;;18.03;;
49946;SDS011;35839;48.662;13.300;2024-01-30T13:36:56;21.60;;;16.20;;
49946;SDS011;35839;48.662;13.300;2024-01-30T13:39:21;28.80;;;19.00;;
49946;SDS011;35839;48.662;13.300;2024-01-30T13:41:47;25.97;;;17.53;;
49946;SDS011;35839;48.662;13.300;2024-01-30T13:44:13;22.33;;;16.80;;
49946;SDS011;35839;48.662;13.300;2024-01-30T13:46:41;26.53;;;19.23;;
49946;SDS011;35839;48.662;13.300;2024-01-30T13:49:06;27.40;;;16.20;;
49946;SDS011;35839;48.662;13.300;2024-01-30T13:51:32;26.07;;;17.07;;
49946;SDS011;35839;48.662;13.300;2024-01-30T13:53:57;26.63;;;17.47;;
49946;SDS011;35839;48.662;13.300;2024-01-30T13:56:23;23.13;;;15.97;;
49946;SDS011;35839;48.662;13.300;2024-01-30T13:58:48;26.13;;;15.47;;
49946;SDS011;35839;48.662;13.300;2024-01-30T14:01:15;25.40;;;16.63;;
49946;SDS011;35839;48.662;13.300;2024-01-30T14:03:40;22.23;;;15.60;;
49946;SDS011;35839;48.662;13.300;2024-01-30T14:06:06;23.30;;;15.30;;